createdAt,value
2023-03-25T00:01:37.811Z,4.68
2023-03-25T00:04:45.322Z,5.13
2023-03-25T00:07:53.933Z,4.85
2023-03-25T00:11:03.411Z,4.77
2023-03-25T00:14:12.326Z,4.06
2023-03-25T00:17:20.612Z,3.92
2023-03-25T00:20:28.149Z,3.94
2023-03-25T00:23:34.106Z,3.90
2023-03-25T00:26:42.732Z,4.13
2023-03-25T00:29:48.701Z,4.62
2023-03-25T00:32:54.890Z,4.36
2023-03-25T00:36:05.564Z,4.76
2023-03-25T00:39:11.931Z,4.85
2023-03-25T00:42:26.212Z,4.91
2023-03-25T00:45:33.000Z,4.98
2023-03-25T00:48:39.422Z,5.01
2023-03-25T00:51:53.018Z,4.91
2023-03-25T00:54:59.996Z,4.95
2023-03-25T00:58:06.550Z,4.76
2023-03-25T01:01:14.442Z,4.09
2023-03-25T01:04:20.704Z,4.39
2023-03-25T01:07:29.497Z,4.33
2023-03-25T01:10:36.871Z,3.08
2023-03-25T01:13:42.797Z,3.12
2023-03-25T01:16:49.046Z,3.68
2023-03-25T01:19:55.238Z,4.18
2023-03-25T01:23:02.604Z,4.12
2023-03-25T01:26:09.322Z,3.94
2023-03-25T01:29:17.337Z,4.11
2023-03-25T01:32:23.588Z,3.98
2023-03-25T01:35:29.603Z,3.73
2023-03-25T01:38:37.241Z,3.43
2023-03-25T01:41:49.729Z,3.32
2023-03-25T01:45:18.019Z,3.60
2023-03-25T01:48:28.657Z,3.84
2023-03-25T01:51:40.507Z,3.39
2023-03-25T01:54:52.159Z,3.80
2023-03-25T01:58:01.634Z,3.13
2023-03-25T02:01:11.608Z,2.96
2023-03-25T02:04:27.418Z,3.44
2023-03-25T02:07:36.821Z,3.12
2023-03-25T02:10:47.289Z,2.74
2023-03-25T02:13:53.624Z,3.37
2023-03-25T02:17:09.448Z,3.35
2023-03-25T02:20:48.919Z,3.34
2023-03-25T02:24:35.534Z,3.44
2023-03-25T02:28:03.226Z,3.46
2023-03-25T02:31:45.472Z,3.67
2023-03-25T02:35:11.929Z,3.63
2023-03-25T02:38:36.872Z,3.94
2023-03-25T02:41:52.350Z,3.67
2023-03-25T02:45:03.478Z,3.42
2023-03-25T02:48:17.241Z,2.93
2023-03-25T02:51:29.631Z,2.86
2023-03-25T02:54:39.420Z,3.03
2023-03-25T02:57:47.851Z,2.65
2023-03-25T03:00:59.223Z,2.34
2023-03-25T03:04:05.997Z,2.39
2023-03-25T03:07:14.278Z,3.37
2023-03-25T03:10:27.324Z,3.42
2023-03-25T03:13:43.769Z,3.19
2023-03-25T03:17:00.767Z,2.98
2023-03-25T03:20:19.350Z,2.89
2023-03-25T03:23:29.266Z,3.60
2023-03-25T03:26:41.910Z,3.51
2023-03-25T03:29:51.178Z,3.64
2023-03-25T03:33:09.978Z,3.72
2023-03-25T03:36:19.079Z,2.77
2023-03-25T03:39:29.073Z,2.84
2023-03-25T03:42:41.888Z,3.12
2023-03-25T03:45:51.661Z,2.26
2023-03-25T03:49:01.171Z,2.14
2023-03-25T03:52:12.764Z,1.97
2023-03-25T03:55:24.962Z,1.99
2023-03-25T03:58:37.066Z,2.38
2023-03-25T04:01:47.070Z,2.84
2023-03-25T04:04:53.959Z,3.10
2023-03-25T04:08:03.953Z,3.37
2023-03-25T04:11:13.557Z,3.40
2023-03-25T04:14:21.886Z,3.46
2023-03-25T04:17:30.324Z,3.43
2023-03-25T04:20:37.243Z,2.96
2023-03-25T04:23:43.317Z,2.49
2023-03-25T04:26:50.038Z,3.06
2023-03-25T04:29:58.345Z,3.52
2023-03-25T04:33:04.755Z,3.35
2023-03-25T04:36:12.071Z,2.72
2023-03-25T04:39:22.550Z,1.78
2023-03-25T04:42:32.891Z,1.94
2023-03-25T04:45:42.908Z,2.87
2023-03-25T04:48:49.005Z,3.15
2023-03-25T04:51:57.100Z,2.65
2023-03-25T04:55:05.387Z,2.59
2023-03-25T04:58:11.485Z,3.14
2023-03-25T05:01:24.292Z,3.56
2023-03-25T05:04:30.500Z,4.56
2023-03-25T05:07:36.708Z,4.25
2023-03-25T05:10:43.387Z,4.45
2023-03-25T05:13:49.522Z,3.92
2023-03-25T05:16:59.396Z,4.30
2023-03-25T05:20:08.491Z,4.49
2023-03-25T05:23:18.017Z,4.32
2023-03-25T05:26:25.052Z,3.42
2023-03-25T05:29:34.138Z,3.49
2023-03-25T05:32:42.308Z,4.05
2023-03-25T05:35:49.580Z,5.12
2023-03-25T05:38:56.996Z,4.92
2023-03-25T05:42:03.513Z,5.31
2023-03-25T05:45:11.844Z,5.80
2023-03-25T05:48:19.509Z,6.17
2023-03-25T05:51:26.981Z,6.13
2023-03-25T05:54:33.455Z,6.33
2023-03-25T05:57:39.835Z,6.33
2023-03-25T06:00:47.247Z,6.69
2023-03-25T06:03:55.668Z,7.03
2023-03-25T06:07:01.834Z,7.63
2023-03-25T06:10:08.769Z,7.70
2023-03-25T06:13:15.205Z,7.73
2023-03-25T06:16:23.107Z,7.72
2023-03-25T06:19:30.917Z,8.32
2023-03-25T06:22:39.179Z,8.52
2023-03-25T06:25:46.159Z,8.67
2023-03-25T06:28:52.788Z,8.75
2023-03-25T06:31:58.977Z,8.84
2023-03-25T06:35:09.315Z,9.27
2023-03-25T06:38:15.570Z,9.58
2023-03-25T06:41:26.041Z,10.16
2023-03-25T06:44:33.788Z,10.07
2023-03-25T06:47:40.132Z,9.84
2023-03-25T06:50:47.839Z,9.97
2023-03-25T06:53:54.336Z,10.80
2023-03-25T06:57:00.594Z,11.07
2023-03-25T07:00:08.257Z,10.90
2023-03-25T07:03:14.441Z,10.65
2023-03-25T07:06:23.748Z,11.54
2023-03-25T07:09:29.918Z,11.10
2023-03-25T07:12:36.604Z,11.29
2023-03-25T07:15:42.931Z,11.49
2023-03-25T07:18:50.367Z,11.82
2023-03-25T07:21:58.106Z,11.99
2023-03-25T07:25:04.677Z,12.03
2023-03-25T07:28:10.732Z,12.16
2023-03-25T07:31:18.052Z,12.66
2023-03-25T07:34:25.007Z,12.74
2023-03-25T07:37:32.741Z,12.77
2023-03-25T07:40:39.347Z,12.83
2023-03-25T07:43:46.276Z,12.70
2023-03-25T07:46:52.435Z,12.89
2023-03-25T07:49:58.699Z,13.88
2023-03-25T07:53:06.602Z,14.27
2023-03-25T07:56:13.486Z,14.70
2023-03-25T07:59:19.951Z,13.86
2023-03-25T08:02:26.378Z,14.93
2023-03-25T08:05:32.988Z,14.72
2023-03-25T08:08:40.817Z,14.97
2023-03-25T08:11:48.650Z,15.37
2023-03-25T08:14:54.758Z,15.27
2023-03-25T08:18:01.906Z,15.44
2023-03-25T08:21:10.096Z,15.13
2023-03-25T08:24:17.557Z,15.70
2023-03-25T08:27:23.970Z,16.13
2023-03-25T08:30:30.125Z,16.82
2023-03-25T08:33:41.196Z,16.90
2023-03-25T08:36:47.676Z,17.23
2023-03-25T08:39:56.212Z,17.60
2023-03-25T08:43:05.338Z,17.51
2023-03-25T08:46:11.722Z,17.25
2023-03-25T08:49:18.220Z,18.16
2023-03-25T08:52:25.065Z,18.28
2023-03-25T08:55:32.609Z,18.54
2023-03-25T08:58:39.283Z,18.41
2023-03-25T09:01:46.019Z,18.33
2023-03-25T09:04:52.472Z,18.41
2023-03-25T09:07:59.000Z,17.71
2023-03-25T09:11:07.275Z,18.01
2023-03-25T09:14:13.349Z,18.58
2023-03-25T09:17:19.889Z,18.56
2023-03-25T09:20:26.621Z,19.64
2023-03-25T09:23:33.247Z,20.63
2023-03-25T09:26:41.046Z,20.33
2023-03-25T09:29:47.366Z,20.80
2023-03-25T09:32:53.468Z,19.79
2023-03-25T09:35:59.520Z,20.38
2023-03-25T09:39:05.776Z,19.84
2023-03-25T09:42:38.827Z,20.28
2023-03-25T09:45:47.330Z,20.76
2023-03-25T09:48:55.633Z,21.00
2023-03-25T09:52:02.528Z,20.79
2023-03-25T09:55:16.226Z,20.82
2023-03-25T09:58:33.359Z,20.50
2023-03-25T10:01:47.593Z,21.28
2023-03-25T10:05:14.550Z,20.76
2023-03-25T10:08:32.513Z,21.03
2023-03-25T10:11:45.409Z,22.16
2023-03-25T10:15:05.230Z,21.85
2023-03-25T10:18:32.653Z,21.68
2023-03-25T10:21:45.751Z,20.64
2023-03-25T10:24:56.140Z,21.48
2023-03-25T10:28:03.381Z,21.30
2023-03-25T10:31:17.727Z,21.78
2023-03-25T10:34:31.995Z,22.66
2023-03-25T10:37:42.133Z,22.25
2023-03-25T10:40:53.482Z,22.13
2023-03-25T10:43:59.602Z,22.38
2023-03-25T10:47:12.965Z,22.83
2023-03-25T10:50:21.877Z,22.68
2023-03-25T10:53:29.810Z,23.19
2023-03-25T10:56:41.529Z,22.63
2023-03-25T10:59:59.324Z,22.13
2023-03-25T11:03:11.306Z,23.08
2023-03-25T11:06:25.475Z,23.04
2023-03-25T11:09:32.922Z,22.49
2023-03-25T11:12:43.320Z,23.30
2023-03-25T11:15:50.946Z,22.52
2023-03-25T11:19:03.141Z,22.55
2023-03-25T11:22:13.976Z,23.48
2023-03-25T11:25:24.865Z,23.12
2023-03-25T11:28:40.246Z,23.16
2023-03-25T11:31:57.794Z,23.03
2023-03-25T11:35:17.576Z,22.50
2023-03-25T11:38:25.288Z,23.22
2023-03-25T11:41:38.154Z,23.22
2023-03-25T11:44:51.138Z,22.85
2023-03-25T11:48:01.558Z,23.21
2023-03-25T11:51:16.605Z,23.11
2023-03-25T11:54:23.213Z,23.40
2023-03-25T11:57:36.339Z,23.00
2023-03-25T12:00:47.885Z,23.52
2023-03-25T12:04:06.979Z,23.78
2023-03-25T12:07:21.697Z,23.30
2023-03-25T12:10:41.007Z,23.68
2023-03-25T12:14:09.217Z,23.61
2023-03-25T12:17:24.482Z,23.42
2023-03-25T12:20:38.573Z,22.79
2023-03-25T12:23:54.090Z,22.89
2023-03-25T12:27:15.387Z,22.98
2023-03-25T12:30:32.961Z,23.69
2023-03-25T12:33:52.048Z,23.70
2023-03-25T12:37:11.247Z,23.11
2023-03-25T12:40:41.907Z,23.45
2023-03-25T12:44:01.569Z,23.01
2023-03-25T12:47:20.541Z,22.47
2023-03-25T12:50:38.943Z,22.62
2023-03-25T12:53:59.952Z,22.81
2023-03-25T12:57:19.126Z,22.64
2023-03-25T13:00:42.012Z,22.93
2023-03-25T13:04:21.865Z,21.79
2023-03-25T13:07:33.394Z,21.77
2023-03-25T13:10:44.808Z,22.69
2023-03-25T13:13:57.320Z,22.09
2023-03-25T13:17:09.386Z,22.84
2023-03-25T13:20:18.145Z,23.22
2023-03-25T13:23:25.752Z,23.43
2023-03-25T13:26:33.671Z,22.70
2023-03-25T13:29:44.585Z,21.66
2023-03-25T13:32:55.710Z,21.47
2023-03-25T13:36:09.616Z,21.43
2023-03-25T13:39:20.526Z,21.23
2023-03-25T13:42:34.285Z,21.05
2023-03-25T13:45:49.015Z,20.86
2023-03-25T13:48:59.512Z,20.44
2023-03-25T13:52:07.860Z,20.34
2023-03-25T13:55:17.222Z,20.69
2023-03-25T13:58:43.313Z,20.66
2023-03-25T14:02:31.954Z,20.42
2023-03-25T14:05:56.391Z,20.05
2023-03-25T14:09:34.682Z,19.96
2023-03-25T14:12:45.662Z,19.91
2023-03-25T14:15:59.920Z,19.88
2023-03-25T14:19:12.733Z,19.94
2023-03-25T14:22:22.869Z,19.62
2023-03-25T14:25:34.778Z,19.82
2023-03-25T14:28:43.941Z,19.66
2023-03-25T14:32:26.207Z,19.40
2023-03-25T14:35:51.524Z,19.41
2023-03-25T14:38:59.646Z,19.30
2023-03-25T14:42:13.533Z,19.37
2023-03-25T14:45:42.979Z,19.22
2023-03-25T14:48:54.821Z,19.12
2023-03-25T14:52:02.927Z,18.90
2023-03-25T14:55:16.263Z,18.52
2023-03-25T14:58:26.362Z,18.52
2023-03-25T15:01:36.971Z,18.13
2023-03-25T15:04:44.395Z,17.54
2023-03-25T15:07:56.913Z,17.02
2023-03-25T15:11:10.608Z,16.70
2023-03-25T15:14:22.578Z,16.51
2023-03-25T15:17:44.941Z,16.21
2023-03-25T15:20:51.868Z,15.99
2023-03-25T15:24:05.855Z,16.03
2023-03-25T15:27:26.049Z,15.91
2023-03-25T15:30:59.401Z,15.77
2023-03-25T15:34:16.856Z,15.88
2023-03-25T15:37:47.253Z,15.78
2023-03-25T15:41:12.973Z,15.75
2023-03-25T15:45:02.012Z,15.73
2023-03-25T15:48:28.767Z,15.82
2023-03-25T15:51:57.824Z,15.98
2023-03-25T15:55:08.929Z,16.01
2023-03-25T15:58:25.113Z,15.85
2023-03-25T16:01:33.946Z,15.76
2023-03-25T16:04:44.252Z,15.73
2023-03-25T16:07:51.266Z,15.94
2023-03-25T16:10:57.722Z,15.82
2023-03-25T16:14:09.591Z,15.77
2023-03-25T16:17:17.163Z,15.65
2023-03-25T16:20:26.129Z,15.59
2023-03-25T16:23:32.589Z,15.70
2023-03-25T16:26:42.684Z,15.53
2023-03-25T16:29:52.946Z,15.49
2023-03-25T16:33:13.952Z,15.67
2023-03-25T16:36:20.901Z,15.32
2023-03-25T16:39:28.253Z,15.23
2023-03-25T16:42:35.620Z,15.32
2023-03-25T16:45:44.394Z,15.22
2023-03-25T16:48:53.879Z,14.90
2023-03-25T16:52:03.410Z,14.86
2023-03-25T16:55:28.821Z,14.78
2023-03-25T16:58:37.692Z,14.78
2023-03-25T17:01:53.144Z,14.66
2023-03-25T17:05:17.147Z,14.47
2023-03-25T17:08:23.986Z,14.47
2023-03-25T17:11:32.462Z,14.54
2023-03-25T17:14:42.082Z,14.61
2023-03-25T17:17:53.853Z,14.39
2023-03-25T17:21:01.553Z,14.01
2023-03-25T17:24:24.056Z,13.98
2023-03-25T17:27:36.249Z,13.79
2023-03-25T17:30:44.417Z,13.70
2023-03-25T17:33:53.665Z,13.84
2023-03-25T17:37:03.756Z,13.88
2023-03-25T17:40:12.685Z,13.77
2023-03-25T17:43:21.215Z,13.64
2023-03-25T17:46:29.720Z,13.02
2023-03-25T17:49:37.545Z,12.85
2023-03-25T17:52:43.884Z,12.63
2023-03-25T17:55:51.258Z,12.67
2023-03-25T17:59:01.608Z,12.68
2023-03-25T18:02:12.375Z,12.72
2023-03-25T18:05:20.111Z,12.82
2023-03-25T18:08:26.661Z,12.59
2023-03-25T18:11:32.858Z,12.70
2023-03-25T18:14:39.144Z,12.63
2023-03-25T18:17:45.610Z,12.67
2023-03-25T18:20:54.661Z,12.56
2023-03-25T18:24:00.811Z,12.74
2023-03-25T18:27:08.232Z,12.53
2023-03-25T18:30:21.358Z,12.43
2023-03-25T18:33:27.830Z,12.19
2023-03-25T18:36:35.154Z,12.31
2023-03-25T18:39:41.192Z,12.15
2023-03-25T18:42:47.985Z,11.96
2023-03-25T18:45:54.352Z,11.75
2023-03-25T18:49:02.646Z,11.43
2023-03-25T18:52:10.154Z,11.66
2023-03-25T18:55:16.241Z,11.47
2023-03-25T18:58:24.433Z,11.58
2023-03-25T19:01:30.634Z,11.57
2023-03-25T19:04:36.893Z,11.49
2023-03-25T19:07:44.454Z,11.58
2023-03-25T19:10:51.264Z,11.52
2023-03-25T19:13:57.529Z,11.48
2023-03-25T19:17:04.549Z,11.07
2023-03-25T19:20:17.649Z,10.73
2023-03-25T19:23:25.841Z,10.71
2023-03-25T19:26:31.838Z,10.63
2023-03-25T19:29:38.139Z,10.89
2023-03-25T19:32:47.216Z,10.79
2023-03-25T19:35:55.526Z,10.69
2023-03-25T19:39:05.747Z,10.48
2023-03-25T19:42:12.139Z,10.53
2023-03-25T19:45:18.872Z,10.42
2023-03-25T19:48:24.992Z,10.13
2023-03-25T19:51:31.802Z,9.87
2023-03-25T19:54:39.412Z,9.59
2023-03-25T19:57:47.589Z,9.50
2023-03-25T20:00:54.173Z,10.18
2023-03-25T20:04:00.313Z,10.09
2023-03-25T20:07:06.303Z,9.86
2023-03-25T20:10:20.194Z,9.60
2023-03-25T20:13:26.856Z,9.39
2023-03-25T20:16:35.002Z,9.83
2023-03-25T20:19:41.460Z,9.39
2023-03-25T20:22:48.351Z,9.21
2023-03-25T20:25:56.209Z,9.44
2023-03-25T20:29:02.402Z,9.64
2023-03-25T20:32:08.776Z,9.40
2023-03-25T20:35:16.496Z,9.46
2023-03-25T20:38:22.878Z,9.65
2023-03-25T20:41:30.736Z,9.45
2023-03-25T20:44:36.829Z,9.01
2023-03-25T20:47:43.385Z,8.98
2023-03-25T20:50:49.812Z,9.17
2023-03-25T20:53:57.053Z,9.33
2023-03-25T20:57:04.747Z,9.74
2023-03-25T21:00:14.357Z,8.95
2023-03-25T21:03:21.031Z,8.58
2023-03-25T21:06:28.553Z,9.26
2023-03-25T21:09:34.866Z,9.52
2023-03-25T21:12:44.715Z,9.50
2023-03-25T21:15:54.539Z,9.69
2023-03-25T21:19:02.493Z,9.34
2023-03-25T21:22:08.683Z,8.11
2023-03-25T21:25:16.919Z,8.17
2023-03-25T21:28:24.521Z,8.31
2023-03-25T21:31:30.986Z,8.26
2023-03-25T21:34:37.465Z,8.76
2023-03-25T21:37:44.337Z,9.04
2023-03-25T21:40:55.934Z,8.63
2023-03-25T21:44:03.696Z,8.56
2023-03-25T21:47:09.912Z,8.40
2023-03-25T21:50:16.625Z,8.85
2023-03-25T21:53:22.935Z,8.74
2023-03-25T21:56:31.519Z,8.27
2023-03-25T21:59:39.176Z,8.43
2023-03-25T22:02:47.229Z,8.02
2023-03-25T22:05:54.074Z,8.53
2023-03-25T22:09:05.240Z,8.35
2023-03-25T22:12:11.326Z,8.64
2023-03-25T22:15:18.759Z,8.96
2023-03-25T22:18:25.518Z,8.50
2023-03-25T22:21:34.569Z,8.66
2023-03-25T22:24:41.744Z,8.35
2023-03-25T22:27:48.130Z,7.52
2023-03-25T22:30:55.740Z,7.57
2023-03-25T22:34:03.963Z,8.04
2023-03-25T22:37:10.052Z,8.64
2023-03-25T22:40:16.369Z,7.83
2023-03-25T22:43:22.645Z,8.17
2023-03-25T22:46:32.368Z,7.57
2023-03-25T22:49:38.953Z,7.63
2023-03-25T22:52:45.093Z,7.72
2023-03-25T22:55:55.050Z,8.14
2023-03-25T22:59:02.117Z,8.13
2023-03-25T23:02:09.593Z,8.29
2023-03-25T23:05:18.583Z,8.06
2023-03-25T23:08:26.069Z,8.07
2023-03-25T23:11:32.623Z,7.85
2023-03-25T23:14:40.459Z,7.93
2023-03-25T23:17:48.101Z,7.81
2023-03-25T23:20:55.208Z,7.78
2023-03-25T23:24:04.139Z,7.07
2023-03-25T23:27:12.259Z,7.86
2023-03-25T23:30:19.550Z,7.85
2023-03-25T23:33:27.211Z,7.49
2023-03-25T23:36:36.530Z,7.74
2023-03-25T23:39:46.322Z,7.62
2023-03-25T23:42:52.585Z,8.07
2023-03-25T23:45:59.510Z,8.05
2023-03-25T23:49:07.245Z,8.02
2023-03-25T23:52:13.797Z,6.92
2023-03-25T23:55:20.684Z,7.22
2023-03-25T23:58:27.481Z,7.18
